DLH2404 EDDF-EDDT
Flight info
| Callsign | DLH2404 |
|---|---|
| Flight time | N/A |
| Altitude | 23000 |
| Route | SULUS3F SULUS Z12 LASGA T202 MILGU MILGU1A |
| Aircraft | A306/H-SDE3FGHIRWY/LB1 |
Departure
| Time | 2026-04-16 13:35 |
|---|---|
| Airport | Frankfurt Main Airport (EDDF) |
Arrival
| Time | N/A |
|---|---|
| Airport | EDDT |
| Time | Latitude | Longitude | Altitude | Speed | Heading |
|---|---|---|---|---|---|
| 2026-04-16 13:07 | 50.04546 | 8.56734 | 362 ft | 0 kts | 295° |
| 2026-04-16 13:23 | 50.04545 | 8.56738 | 366 ft | 3 kts | 295° |
| 2026-04-16 13:24 | 50.04536 | 8.56767 | 364 ft | 3 kts | 295° |
| 2026-04-16 13:24 | 50.04528 | 8.56796 | 368 ft | 3 kts | 293° |
| 2026-04-16 13:24 | 50.04520 | 8.56825 | 368 ft | 3 kts | 290° |
| 2026-04-16 13:24 | 50.04515 | 8.56852 | 365 ft | 2 kts | 272° |
| 2026-04-16 13:25 | 50.04516 | 8.56867 | 365 ft | 1 kts | 237° |
| 2026-04-16 13:25 | 50.04522 | 8.56877 | 365 ft | 1 kts | 207° |
| 2026-04-16 13:25 | 50.04530 | 8.56882 | 367 ft | 1 kts | 198° |
| 2026-04-16 13:25 | 50.04538 | 8.56886 | 366 ft | 1 kts | 195° |
| 2026-04-16 13:26 | 50.04543 | 8.56888 | 365 ft | 0 kts | 194° |
| 2026-04-16 13:27 | 50.04531 | 8.56883 | 367 ft | 3 kts | 194° |
| 2026-04-16 13:28 | 50.04491 | 8.56867 | 365 ft | 9 kts | 194° |
| 2026-04-16 13:28 | 50.04419 | 8.56848 | 365 ft | 10 kts | 186° |
| 2026-04-16 13:28 | 50.04367 | 8.56833 | 366 ft | 5 kts | 191° |
| 2026-04-16 13:28 | 50.04333 | 8.56823 | 366 ft | 6 kts | 191° |
| 2026-04-16 13:29 | 50.04284 | 8.56837 | 367 ft | 9 kts | 148° |
| 2026-04-16 13:29 | 50.04285 | 8.56944 | 368 ft | 13 kts | 69° |
| 2026-04-16 13:29 | 50.04324 | 8.57101 | 368 ft | 17 kts | 70° |
| 2026-04-16 13:29 | 50.04369 | 8.57297 | 371 ft | 21 kts | 70° |
| 2026-04-16 13:30 | 50.04426 | 8.57535 | 368 ft | 25 kts | 71° |
| 2026-04-16 13:30 | 50.04489 | 8.57803 | 373 ft | 28 kts | 71° |
| 2026-04-16 13:30 | 50.04551 | 8.58063 | 371 ft | 24 kts | 70° |
| 2026-04-16 13:30 | 50.04601 | 8.58270 | 377 ft | 16 kts | 70° |
| 2026-04-16 13:31 | 50.04634 | 8.58407 | 376 ft | 11 kts | 68° |
| 2026-04-16 13:31 | 50.04657 | 8.58498 | 378 ft | 7 kts | 69° |
| 2026-04-16 13:31 | 50.04658 | 8.58529 | 379 ft | 0 kts | 98° |
| 2026-04-16 13:31 | 50.04654 | 8.58543 | 379 ft | 4 kts | 115° |
| 2026-04-16 13:32 | 50.04645 | 8.58557 | 378 ft | 0 kts | 143° |
| 2026-04-16 13:33 | 50.04643 | 8.58559 | 378 ft | 3 kts | 143° |
| 2026-04-16 13:33 | 50.04592 | 8.58594 | 376 ft | 11 kts | 163° |
| 2026-04-16 13:33 | 50.04537 | 8.58621 | 377 ft | 6 kts | 163° |
| 2026-04-16 13:33 | 50.04510 | 8.58628 | 377 ft | 3 kts | 190° |
| 2026-04-16 13:34 | 50.04491 | 8.58598 | 376 ft | 6 kts | 227° |
| 2026-04-16 13:34 | 50.04471 | 8.58517 | 376 ft | 11 kts | 250° |
| 2026-04-16 13:34 | 50.04428 | 8.58334 | 378 ft | 32 kts | 249° |
| 2026-04-16 13:34 | 50.04341 | 8.57976 | 375 ft | 75 kts | 250° |
| 2026-04-16 13:35 | 50.03970 | 8.56421 | 364 ft | 152 kts | 250° |
| 2026-04-16 13:35 | 50.03545 | 8.54646 | 586 ft | 189 kts | 249° |
| 2026-04-16 13:35 | 50.03096 | 8.52752 | 1664 ft | 181 kts | 249° |
| 2026-04-16 13:35 | 50.02582 | 8.50911 | 2442 ft | 200 kts | 239° |
| 2026-04-16 13:36 | 50.01921 | 8.49818 | 2648 ft | 220 kts | 212° |
| 2026-04-16 13:36 | 49.99898 | 8.48914 | 3770 ft | 231 kts | 184° |
| 2026-04-16 13:36 | 49.98336 | 8.49401 | 4874 ft | 234 kts | 154° |
| 2026-04-16 13:36 | 49.97117 | 8.51105 | 5785 ft | 242 kts | 125° |
| 2026-04-16 13:37 | 49.96260 | 8.53391 | 6791 ft | 250 kts | 119° |
| 2026-04-16 13:37 | 49.95407 | 8.55870 | 7390 ft | 270 kts | 119° |
| 2026-04-16 13:37 | 49.94519 | 8.58515 | 8147 ft | 282 kts | 115° |
| 2026-04-16 13:37 | 49.94007 | 8.61445 | 8972 ft | 289 kts | 97° |
| 2026-04-16 13:38 | 49.93850 | 8.64572 | 9824 ft | 293 kts | 94° |
| 2026-04-16 13:38 | 49.93598 | 8.67728 | 10535 ft | 300 kts | 105° |
| 2026-04-16 13:38 | 49.92606 | 8.70650 | 10838 ft | 317 kts | 134° |
| 2026-04-16 13:38 | 49.90876 | 8.72895 | 11132 ft | 334 kts | 146° |
| 2026-04-16 13:39 | 49.88993 | 8.75160 | 11411 ft | 353 kts | 138° |
| 2026-04-16 13:39 | 49.87427 | 8.78268 | 11685 ft | 372 kts | 123° |
| 2026-04-16 13:39 | 49.86126 | 8.81758 | 12066 ft | 384 kts | 120° |
| 2026-04-16 13:39 | 49.84818 | 8.85408 | 12616 ft | 390 kts | 120° |
| 2026-04-16 13:40 | 49.83492 | 8.89106 | 13181 ft | 396 kts | 120° |
| 2026-04-16 13:40 | 49.82136 | 8.92861 | 13799 ft | 401 kts | 120° |
| 2026-04-16 13:40 | 49.80760 | 8.96656 | 14335 ft | 407 kts | 120° |
| 2026-04-16 13:40 | 49.79367 | 9.00487 | 14895 ft | 410 kts | 120° |
| 2026-04-16 13:41 | 49.77959 | 9.04353 | 15485 ft | 414 kts | 120° |
| 2026-04-16 13:41 | 49.76583 | 9.08297 | 16026 ft | 419 kts | 115° |
| 2026-04-16 13:41 | 49.75635 | 9.12570 | 16611 ft | 423 kts | 105° |
| 2026-04-16 13:41 | 49.74913 | 9.17006 | 17172 ft | 427 kts | 104° |
| 2026-04-16 13:42 | 49.74449 | 9.19962 | 17548 ft | 429 kts | 104° |
| 2026-04-16 13:42 | 49.73736 | 9.24472 | 18104 ft | 434 kts | 104° |
| 2026-04-16 13:42 | 49.72757 | 9.30566 | 18778 ft | 439 kts | 104° |
| 2026-04-16 13:42 | 49.72013 | 9.35159 | 19251 ft | 442 kts | 104° |
| 2026-04-16 13:43 | 49.71260 | 9.39790 | 19729 ft | 446 kts | 104° |
| 2026-04-16 13:43 | 49.70498 | 9.44446 | 20168 ft | 450 kts | 104° |
| 2026-04-16 13:43 | 49.69988 | 9.47558 | 20487 ft | 452 kts | 104° |
| 2026-04-16 13:43 | 49.68949 | 9.53884 | 21064 ft | 456 kts | 104° |
| 2026-04-16 13:44 | 49.68163 | 9.58648 | 21506 ft | 459 kts | 104° |
| 2026-04-16 13:44 | 49.67907 | 9.60200 | 21640 ft | 460 kts | 104° |
| 2026-04-16 13:44 | 49.67201 | 9.66732 | 22186 ft | 464 kts | 89° |
| 2026-04-16 13:44 | 49.67613 | 9.71654 | 22660 ft | 464 kts | 75° |
| 2026-04-16 13:45 | 49.68453 | 9.76480 | 23083 ft | 466 kts | 72° |
| 2026-04-16 13:45 | 49.69632 | 9.82899 | 23200 ft | 459 kts | 72° |
| 2026-04-16 13:45 | 49.70193 | 9.85999 | 23222 ft | 446 kts | 72° |
| 2026-04-16 13:45 | 49.71289 | 9.92012 | 23205 ft | 426 kts | 69° |
| 2026-04-16 13:46 | 49.72467 | 9.96100 | 23223 ft | 420 kts | 56° |
| 2026-04-16 13:46 | 49.74086 | 9.99839 | 23217 ft | 418 kts | 51° |
| 2026-04-16 13:46 | 49.75235 | 10.02309 | 23219 ft | 419 kts | 50° |
| 2026-04-16 13:46 | 49.77497 | 10.07144 | 23221 ft | 419 kts | 50° |
| 2026-04-16 13:47 | 49.78648 | 10.09616 | 23219 ft | 419 kts | 50° |
| 2026-04-16 13:47 | 49.80347 | 10.13280 | 23227 ft | 419 kts | 51° |
| 2026-04-16 13:47 | 49.82042 | 10.16946 | 23226 ft | 419 kts | 51° |
| 2026-04-16 13:47 | 49.83735 | 10.20622 | 23228 ft | 419 kts | 51° |
| 2026-04-16 13:48 | 49.85428 | 10.24302 | 23209 ft | 419 kts | 51° |
| 2026-04-16 13:48 | 49.87116 | 10.27982 | 23204 ft | 419 kts | 51° |
| 2026-04-16 13:48 | 49.88804 | 10.31664 | 23212 ft | 419 kts | 51° |
| 2026-04-16 13:48 | 49.90490 | 10.35347 | 23217 ft | 419 kts | 51° |
| 2026-04-16 13:49 | 49.92176 | 10.39038 | 23217 ft | 419 kts | 51° |
| 2026-04-16 13:49 | 49.93861 | 10.42731 | 23221 ft | 419 kts | 51° |
| 2026-04-16 13:49 | 49.95545 | 10.46427 | 23215 ft | 419 kts | 51° |
| 2026-04-16 13:49 | 49.97230 | 10.50132 | 23209 ft | 419 kts | 51° |
| 2026-04-16 13:50 | 49.98890 | 10.53784 | 23210 ft | 420 kts | 51° |
| 2026-04-16 13:50 | 50.00570 | 10.57488 | 23216 ft | 420 kts | 51° |
| 2026-04-16 13:50 | 50.02251 | 10.61198 | 23211 ft | 420 kts | 51° |
| 2026-04-16 13:50 | 50.03933 | 10.64915 | 23207 ft | 420 kts | 51° |
| 2026-04-16 13:51 | 50.05612 | 10.68634 | 23214 ft | 420 kts | 51° |
| 2026-04-16 13:51 | 50.07312 | 10.72327 | 23210 ft | 419 kts | 48° |
| 2026-04-16 13:51 | 50.09142 | 10.75844 | 23224 ft | 417 kts | 45° |
| 2026-04-16 13:51 | 50.11049 | 10.79245 | 23209 ft | 417 kts | 44° |
| 2026-04-16 13:52 | 50.12993 | 10.82591 | 23219 ft | 416 kts | 43° |
| 2026-04-16 13:52 | 50.14948 | 10.85920 | 23213 ft | 416 kts | 43° |
| 2026-04-16 13:52 | 50.16900 | 10.89254 | 23221 ft | 417 kts | 43° |
| 2026-04-16 13:52 | 50.18845 | 10.92599 | 23223 ft | 417 kts | 43° |
| 2026-04-16 13:53 | 50.20788 | 10.95967 | 23220 ft | 417 kts | 44° |
| 2026-04-16 13:53 | 50.22721 | 10.99336 | 23216 ft | 417 kts | 44° |
| 2026-04-16 13:53 | 50.24653 | 11.02717 | 23219 ft | 417 kts | 44° |
| 2026-04-16 13:53 | 50.26583 | 11.06103 | 23217 ft | 417 kts | 44° |
| 2026-04-16 13:54 | 50.28513 | 11.09493 | 23218 ft | 417 kts | 44° |
| 2026-04-16 13:54 | 50.30440 | 11.12884 | 23215 ft | 417 kts | 44° |
| 2026-04-16 13:54 | 50.32369 | 11.16282 | 23215 ft | 417 kts | 44° |
| 2026-04-16 13:54 | 50.34294 | 11.19675 | 23210 ft | 417 kts | 44° |
| 2026-04-16 13:55 | 50.36232 | 11.23055 | 23210 ft | 417 kts | 42° |
| 2026-04-16 13:55 | 50.38243 | 11.26312 | 23209 ft | 415 kts | 40° |
| 2026-04-16 13:55 | 50.40305 | 11.29481 | 23208 ft | 415 kts | 39° |
| 2026-04-16 13:55 | 50.42385 | 11.32608 | 23208 ft | 414 kts | 39° |
| 2026-04-16 13:56 | 50.44470 | 11.35732 | 23213 ft | 414 kts | 39° |
| 2026-04-16 13:56 | 50.46547 | 11.38858 | 23207 ft | 414 kts | 39° |
| 2026-04-16 13:56 | 50.48625 | 11.42009 | 23205 ft | 414 kts | 39° |
| 2026-04-16 13:56 | 50.50687 | 11.45159 | 23204 ft | 415 kts | 39° |
| 2026-04-16 13:57 | 50.52753 | 11.48331 | 23206 ft | 415 kts | 39° |
| 2026-04-16 13:57 | 50.54816 | 11.51491 | 23206 ft | 414 kts | 38° |
| 2026-04-16 13:57 | 50.57035 | 11.54346 | 23203 ft | 411 kts | 33° |
| 2026-04-16 13:58 | 50.61597 | 11.59744 | 23197 ft | 410 kts | 31° |
| 2026-04-16 13:58 | 50.63900 | 11.62376 | 23199 ft | 410 kts | 31° |
| 2026-04-16 13:58 | 50.66183 | 11.64969 | 23199 ft | 410 kts | 31° |
| 2026-04-16 13:58 | 50.68523 | 11.67627 | 23199 ft | 410 kts | 31° |
| 2026-04-16 13:59 | 50.70839 | 11.70265 | 23195 ft | 410 kts | 31° |
| 2026-04-16 13:59 | 50.73114 | 11.72868 | 23199 ft | 410 kts | 31° |
| 2026-04-16 13:59 | 50.75424 | 11.75520 | 23195 ft | 410 kts | 31° |
| 2026-04-16 13:59 | 50.77731 | 11.78175 | 23193 ft | 410 kts | 31° |
| 2026-04-16 14:00 | 50.80034 | 11.80833 | 23192 ft | 410 kts | 31° |
| 2026-04-16 14:00 | 50.82339 | 11.83496 | 23197 ft | 410 kts | 31° |
| 2026-04-16 14:00 | 50.84644 | 11.86162 | 23192 ft | 410 kts | 31° |
| 2026-04-16 14:00 | 50.86947 | 11.88829 | 23189 ft | 410 kts | 31° |
| 2026-04-16 14:01 | 50.89253 | 11.91501 | 23189 ft | 410 kts | 31° |
| 2026-04-16 14:01 | 50.91553 | 11.94172 | 23194 ft | 410 kts | 31° |
| 2026-04-16 14:01 | 50.93852 | 11.96846 | 23190 ft | 411 kts | 31° |
| 2026-04-16 14:01 | 50.96160 | 11.99535 | 23188 ft | 411 kts | 31° |
| 2026-04-16 14:02 | 50.98463 | 12.02220 | 23185 ft | 411 kts | 31° |
| 2026-04-16 14:02 | 51.00766 | 12.04906 | 23182 ft | 411 kts | 31° |
| 2026-04-16 14:02 | 51.03067 | 12.07593 | 23185 ft | 411 kts | 31° |
| 2026-04-16 14:02 | 51.05370 | 12.10287 | 23184 ft | 411 kts | 32° |
| 2026-04-16 14:03 | 51.07671 | 12.12981 | 23182 ft | 411 kts | 32° |
| 2026-04-16 14:03 | 51.09973 | 12.15679 | 23183 ft | 411 kts | 32° |
| 2026-04-16 14:03 | 51.12278 | 12.18385 | 23182 ft | 411 kts | 32° |
| 2026-04-16 14:03 | 51.14576 | 12.21087 | 23179 ft | 411 kts | 32° |
| 2026-04-16 14:04 | 51.16878 | 12.23798 | 23180 ft | 412 kts | 32° |
| 2026-04-16 14:04 | 51.19181 | 12.26514 | 23179 ft | 412 kts | 32° |
| 2026-04-16 14:04 | 51.21482 | 12.29233 | 23181 ft | 412 kts | 32° |
| 2026-04-16 14:04 | 51.23787 | 12.31960 | 23186 ft | 412 kts | 32° |
| 2026-04-16 14:05 | 51.26086 | 12.34686 | 23183 ft | 412 kts | 32° |
| 2026-04-16 14:05 | 51.28391 | 12.37420 | 23183 ft | 413 kts | 32° |
| 2026-04-16 14:05 | 51.30634 | 12.40195 | 23178 ft | 416 kts | 38° |
| 2026-04-16 14:05 | 51.32753 | 12.43440 | 23181 ft | 417 kts | 40° |
| 2026-04-16 14:06 | 51.34764 | 12.46706 | 23180 ft | 418 kts | 42° |
| 2026-04-16 14:06 | 51.36794 | 12.50124 | 23183 ft | 419 kts | 43° |
| 2026-04-16 14:06 | 51.38783 | 12.53533 | 23186 ft | 419 kts | 43° |
| 2026-04-16 14:06 | 51.40764 | 12.56955 | 23181 ft | 419 kts | 43° |
| 2026-04-16 14:07 | 51.42742 | 12.60375 | 23172 ft | 416 kts | 43° |
| 2026-04-16 14:07 | 51.44680 | 12.63728 | 23175 ft | 405 kts | 43° |
| 2026-04-16 14:07 | 51.46395 | 12.67206 | 23178 ft | 404 kts | 54° |
| 2026-04-16 14:07 | 51.47763 | 12.71151 | 23182 ft | 405 kts | 60° |
| 2026-04-16 14:08 | 51.49016 | 12.75209 | 23182 ft | 406 kts | 61° |
| 2026-04-16 14:08 | 51.50242 | 12.79299 | 23181 ft | 407 kts | 62° |
| 2026-04-16 14:08 | 51.51460 | 12.83407 | 23181 ft | 407 kts | 62° |
| 2026-04-16 14:08 | 51.52670 | 12.87509 | 23178 ft | 407 kts | 62° |
| 2026-04-16 14:09 | 51.53879 | 12.91620 | 23020 ft | 407 kts | 62° |
| 2026-04-16 14:09 | 51.55080 | 12.95719 | 22590 ft | 403 kts | 62° |
| 2026-04-16 14:09 | 51.56278 | 12.99772 | 22175 ft | 400 kts | 60° |
| 2026-04-16 14:09 | 51.57826 | 13.03421 | 21638 ft | 393 kts | 41° |
| 2026-04-16 14:10 | 51.59887 | 13.06230 | 21167 ft | 387 kts | 33° |
| 2026-04-16 14:10 | 51.62049 | 13.08784 | 20669 ft | 385 kts | 32° |
| 2026-04-16 14:10 | 51.64219 | 13.11313 | 20190 ft | 385 kts | 32° |
| 2026-04-16 14:10 | 51.66380 | 13.13844 | 19679 ft | 384 kts | 32° |
| 2026-04-16 14:11 | 51.68543 | 13.16390 | 19182 ft | 384 kts | 32° |
| 2026-04-16 14:11 | 51.70693 | 13.18933 | 18696 ft | 383 kts | 32° |
| 2026-04-16 14:11 | 51.72835 | 13.21473 | 18176 ft | 382 kts | 33° |
| 2026-04-16 14:11 | 51.74971 | 13.24009 | 17654 ft | 380 kts | 33° |
| 2026-04-16 14:12 | 51.77091 | 13.26531 | 17169 ft | 377 kts | 33° |
| 2026-04-16 14:12 | 51.79191 | 13.29034 | 16707 ft | 373 kts | 33° |
| 2026-04-16 14:12 | 51.81268 | 13.31513 | 16271 ft | 369 kts | 33° |
| 2026-04-16 14:12 | 51.83335 | 13.33983 | 15812 ft | 366 kts | 33° |
| 2026-04-16 14:13 | 51.85379 | 13.36428 | 15339 ft | 364 kts | 33° |
| 2026-04-16 14:13 | 51.87406 | 13.38854 | 14833 ft | 362 kts | 33° |
| 2026-04-16 14:13 | 51.89409 | 13.41255 | 14384 ft | 358 kts | 33° |
| 2026-04-16 14:13 | 51.91406 | 13.43650 | 14027 ft | 353 kts | 34° |
| 2026-04-16 14:14 | 51.93386 | 13.46029 | 13435 ft | 353 kts | 34° |
| 2026-04-16 14:14 | 51.95336 | 13.48377 | 12961 ft | 349 kts | 33° |
| 2026-04-16 14:14 | 51.97279 | 13.50717 | 12591 ft | 344 kts | 33° |
| 2026-04-16 14:14 | 51.99198 | 13.53030 | 12009 ft | 344 kts | 33° |
| 2026-04-16 14:15 | 52.01118 | 13.55271 | 11567 ft | 338 kts | 28° |
| 2026-04-16 14:15 | 52.03253 | 13.56679 | 11210 ft | 326 kts | 11° |
| 2026-04-16 14:15 | 52.05442 | 13.57387 | 10980 ft | 316 kts | 7° |
| 2026-04-16 14:15 | 52.07556 | 13.57979 | 10739 ft | 299 kts | 7° |
| 2026-04-16 14:16 | 52.09524 | 13.58529 | 10379 ft | 284 kts | 6° |
| 2026-04-16 14:16 | 52.11463 | 13.59071 | 10137 ft | 278 kts | 6° |
| 2026-04-16 14:16 | 52.13345 | 13.59594 | 9810 ft | 277 kts | 6° |
| 2026-04-16 14:16 | 52.15233 | 13.60131 | 9569 ft | 274 kts | 6° |
| 2026-04-16 14:17 | 52.17114 | 13.60665 | 9349 ft | 274 kts | 6° |
| 2026-04-16 14:17 | 52.18989 | 13.61197 | 9124 ft | 274 kts | 6° |
| 2026-04-16 14:17 | 52.20865 | 13.61732 | 8889 ft | 273 kts | 6° |
| 2026-04-16 14:17 | 52.22733 | 13.62266 | 8583 ft | 272 kts | 6° |
| 2026-04-16 14:18 | 52.24581 | 13.62796 | 8433 ft | 269 kts | 6° |
| 2026-04-16 14:18 | 52.26433 | 13.63326 | 8222 ft | 271 kts | 6° |
| 2026-04-16 14:18 | 52.28290 | 13.63858 | 7993 ft | 270 kts | 6° |
| 2026-04-16 14:18 | 52.30138 | 13.64386 | 7762 ft | 269 kts | 6° |
| 2026-04-16 14:19 | 52.31982 | 13.64913 | 7549 ft | 269 kts | 6° |
| 2026-04-16 14:19 | 52.33820 | 13.65437 | 7325 ft | 268 kts | 6° |
| 2026-04-16 14:19 | 52.35652 | 13.65962 | 7089 ft | 267 kts | 7° |
| 2026-04-16 14:19 | 52.37475 | 13.66490 | 6871 ft | 266 kts | 7° |
| 2026-04-16 14:20 | 52.38988 | 13.66930 | 6645 ft | 263 kts | 7° |
| 2026-04-16 14:20 | 52.40759 | 13.67443 | 6464 ft | 255 kts | 6° |
| 2026-04-16 14:20 | 52.42486 | 13.67943 | 6277 ft | 248 kts | 7° |
| 2026-04-16 14:20 | 52.44169 | 13.68432 | 6032 ft | 244 kts | 7° |
| 2026-04-16 14:21 | 52.45836 | 13.68914 | 5749 ft | 241 kts | 7° |
| 2026-04-16 14:21 | 52.47467 | 13.69388 | 5549 ft | 235 kts | 7° |
| 2026-04-16 14:21 | 52.49064 | 13.69856 | 5359 ft | 232 kts | 7° |
| 2026-04-16 14:21 | 52.50650 | 13.70307 | 5168 ft | 232 kts | 6° |
| 2026-04-16 14:22 | 52.52254 | 13.70388 | 4971 ft | 230 kts | 352° |
| 2026-04-16 14:22 | 52.53837 | 13.70047 | 4784 ft | 230 kts | 349° |
| 2026-04-16 14:22 | 52.55418 | 13.69636 | 4595 ft | 230 kts | 349° |
| 2026-04-16 14:22 | 52.56984 | 13.69174 | 4426 ft | 226 kts | 343° |
| 2026-04-16 14:23 | 52.58337 | 13.67983 | 4165 ft | 222 kts | 311° |
| 2026-04-16 14:23 | 52.58979 | 13.65764 | 3975 ft | 213 kts | 283° |
| 2026-04-16 14:23 | 52.59230 | 13.63426 | 3842 ft | 204 kts | 275° |
| 2026-04-16 14:23 | 52.59186 | 13.61122 | 3605 ft | 201 kts | 263° |
| 2026-04-16 14:24 | 52.58950 | 13.58873 | 3331 ft | 199 kts | 261° |
| 2026-04-16 14:24 | 52.58719 | 13.56636 | 3071 ft | 197 kts | 261° |
| 2026-04-16 14:24 | 52.58507 | 13.54411 | 2950 ft | 198 kts | 263° |
| 2026-04-16 14:24 | 52.58288 | 13.52182 | 2709 ft | 197 kts | 261° |
| 2026-04-16 14:25 | 52.58056 | 13.49952 | 2442 ft | 200 kts | 261° |
| 2026-04-16 14:25 | 52.57837 | 13.47727 | 2166 ft | 199 kts | 262° |
| 2026-04-16 14:25 | 52.57613 | 13.45477 | 1891 ft | 199 kts | 261° |
| 2026-04-16 14:25 | 52.57395 | 13.43252 | 1618 ft | 194 kts | 262° |
| 2026-04-16 14:26 | 52.57185 | 13.41107 | 1360 ft | 187 kts | 262° |
| 2026-04-16 14:26 | 52.56986 | 13.39056 | 1119 ft | 177 kts | 262° |
| 2026-04-16 14:26 | 52.56793 | 13.37100 | 885 ft | 171 kts | 261° |
| 2026-04-16 14:26 | 52.56609 | 13.35229 | 666 ft | 159 kts | 261° |
| 2026-04-16 14:27 | 52.56444 | 13.33558 | 464 ft | 138 kts | 262° |
| 2026-04-16 14:27 | 52.56298 | 13.32058 | 240 ft | 129 kts | 262° |
| 2026-04-16 14:27 | 52.56152 | 13.30536 | 141 ft | 154 kts | 261° |
| 2026-04-16 14:27 | 52.55989 | 13.28865 | 130 ft | 121 kts | 260° |
| 2026-04-16 14:28 | 52.55897 | 13.27973 | 133 ft | 35 kts | 246° |
| 2026-04-16 14:28 | 52.55870 | 13.27905 | 133 ft | 0 kts | 235° |
| 2026-04-16 14:28 | 52.55847 | 13.27850 | 132 ft | 12 kts | 235° |
| 2026-04-16 14:28 | 52.55792 | 13.27726 | 131 ft | 13 kts | 232° |